sensor_id;sensor_type;location;lat;lon;timestamp;P1;durP1;ratioP1;P2;durP2;ratioP2
79122;SDS011;68526;44.600;26.032;2023-03-23T00:00:12;53.38;;;33.47;;
79122;SDS011;68526;44.600;26.032;2023-03-23T00:00:29;54.92;;;33.10;;
79122;SDS011;68526;44.600;26.032;2023-03-23T00:00:45;54.72;;;33.78;;
79122;SDS011;68526;44.600;26.032;2023-03-23T00:01:02;53.17;;;33.75;;
79122;SDS011;68526;44.600;26.032;2023-03-23T00:01:19;51.87;;;32.97;;
79122;SDS011;68526;44.600;26.032;2023-03-23T00:01:37;53.38;;;33.47;;
79122;SDS011;68526;44.600;26.032;2023-03-23T00:01:52;54.72;;;33.75;;
79122;SDS011;68526;44.600;26.032;2023-03-23T00:02:08;53.38;;;33.33;;
79122;SDS011;68526;44.600;26.032;2023-03-23T00:02:25;53.57;;;33.10;;
79122;SDS011;68526;44.600;26.032;2023-03-23T00:02:42;53.63;;;33.13;;
79122;SDS011;68526;44.600;26.032;2023-03-23T00:02:58;51.85;;;32.60;;
79122;SDS011;68526;44.600;26.032;2023-03-23T00:03:14;50.42;;;32.78;;
79122;SDS011;68526;44.600;26.032;2023-03-23T00:03:31;51.08;;;33.95;;
79122;SDS011;68526;44.600;26.032;2023-03-23T00:03:49;50.88;;;32.40;;
79122;SDS011;68526;44.600;26.032;2023-03-23T00:04:06;52.97;;;32.00;;
79122;SDS011;68526;44.600;26.032;2023-03-23T00:04:22;53.33;;;31.90;;
79122;SDS011;68526;44.600;26.032;2023-03-23T00:04:39;50.35;;;31.95;;
79122;SDS011;68526;44.600;26.032;2023-03-23T00:04:57;50.08;;;32.42;;
79122;SDS011;68526;44.600;26.032;2023-03-23T00:05:15;63.45;;;33.15;;
79122;SDS011;68526;44.600;26.032;2023-03-23T00:05:31;66.23;;;34.30;;
79122;SDS011;68526;44.600;26.032;2023-03-23T00:05:47;55.17;;;34.03;;
79122;SDS011;68526;44.600;26.032;2023-03-23T00:06:07;54.90;;;32.45;;
79122;SDS011;68526;44.600;26.032;2023-03-23T00:06:24;54.83;;;31.80;;
79122;SDS011;68526;44.600;26.032;2023-03-23T00:06:42;53.08;;;32.15;;
79122;SDS011;68526;44.600;26.032;2023-03-23T00:07:00;52.43;;;31.50;;
79122;SDS011;68526;44.600;26.032;2023-03-23T00:07:18;60.13;;;32.92;;
79122;SDS011;68526;44.600;26.032;2023-03-23T00:07:36;61.00;;;33.53;;
79122;SDS011;68526;44.600;26.032;2023-03-23T00:07:52;63.40;;;32.63;;
79122;SDS011;68526;44.600;26.032;2023-03-23T00:08:10;70.35;;;32.97;;
79122;SDS011;68526;44.600;26.032;2023-03-23T00:08:27;72.80;;;33.95;;
79122;SDS011;68526;44.600;26.032;2023-03-23T00:08:44;68.22;;;33.17;;
79122;SDS011;68526;44.600;26.032;2023-03-23T00:09:01;60.67;;;32.13;;
79122;SDS011;68526;44.600;26.032;2023-03-23T00:09:18;56.53;;;32.67;;
79122;SDS011;68526;44.600;26.032;2023-03-23T00:09:38;57.70;;;33.25;;
79122;SDS011;68526;44.600;26.032;2023-03-23T00:09:56;62.70;;;32.42;;
79122;SDS011;68526;44.600;26.032;2023-03-23T00:10:12;58.80;;;31.63;;
79122;SDS011;68526;44.600;26.032;2023-03-23T00:10:28;54.40;;;31.75;;
79122;SDS011;68526;44.600;26.032;2023-03-23T00:10:48;54.05;;;32.45;;
79122;SDS011;68526;44.600;26.032;2023-03-23T00:11:07;54.17;;;32.53;;
79122;SDS011;68526;44.600;26.032;2023-03-23T00:11:23;52.85;;;33.38;;
79122;SDS011;68526;44.600;26.032;2023-03-23T00:11:44;53.20;;;33.17;;
79122;SDS011;68526;44.600;26.032;2023-03-23T00:12:00;54.30;;;32.70;;
79122;SDS011;68526;44.600;26.032;2023-03-23T00:12:20;49.13;;;31.38;;
79122;SDS011;68526;44.600;26.032;2023-03-23T00:12:43;54.17;;;31.85;;
79122;SDS011;68526;44.600;26.032;2023-03-23T00:13:04;55.58;;;32.33;;
79122;SDS011;68526;44.600;26.032;2023-03-23T00:13:20;54.50;;;32.57;;
79122;SDS011;68526;44.600;26.032;2023-03-23T00:13:36;52.88;;;33.53;;
79122;SDS011;68526;44.600;26.032;2023-03-23T00:13:52;52.50;;;33.83;;
79122;SDS011;68526;44.600;26.032;2023-03-23T00:14:09;49.80;;;32.20;;
79122;SDS011;68526;44.600;26.032;2023-03-23T00:14:32;49.65;;;31.40;;
79122;SDS011;68526;44.600;26.032;2023-03-23T00:15:04;55.38;;;31.73;;
79122;SDS011;68526;44.600;26.032;2023-03-23T00:15:21;50.05;;;31.65;;
79122;SDS011;68526;44.600;26.032;2023-03-23T00:15:39;49.85;;;31.65;;
79122;SDS011;68526;44.600;26.032;2023-03-23T00:15:56;56.10;;;30.90;;
79122;SDS011;68526;44.600;26.032;2023-03-23T00:16:13;57.75;;;31.58;;
79122;SDS011;68526;44.600;26.032;2023-03-23T00:16:32;61.88;;;32.80;;
79122;SDS011;68526;44.600;26.032;2023-03-23T00:16:50;57.80;;;30.80;;
79122;SDS011;68526;44.600;26.032;2023-03-23T00:17:07;54.93;;;31.13;;
79122;SDS011;68526;44.600;26.032;2023-03-23T00:17:25;53.28;;;31.42;;
79122;SDS011;68526;44.600;26.032;2023-03-23T00:17:42;49.03;;;31.10;;
79122;SDS011;68526;44.600;26.032;2023-03-23T00:17:58;44.92;;;30.05;;
79122;SDS011;68526;44.600;26.032;2023-03-23T00:18:17;51.28;;;29.25;;
79122;SDS011;68526;44.600;26.032;2023-03-23T00:18:38;48.97;;;29.80;;
79122;SDS011;68526;44.600;26.032;2023-03-23T00:18:55;47.15;;;30.00;;
79122;SDS011;68526;44.600;26.032;2023-03-23T00:19:13;46.40;;;30.65;;
79122;SDS011;68526;44.600;26.032;2023-03-23T00:19:29;45.38;;;30.17;;
79122;SDS011;68526;44.600;26.032;2023-03-23T00:19:44;45.00;;;28.92;;
79122;SDS011;68526;44.600;26.032;2023-03-23T00:20:00;44.78;;;29.65;;
79122;SDS011;68526;44.600;26.032;2023-03-23T00:20:20;44.15;;;29.85;;
79122;SDS011;68526;44.600;26.032;2023-03-23T00:20:40;44.53;;;29.45;;
79122;SDS011;68526;44.600;26.032;2023-03-23T00:20:56;44.65;;;29.33;;
79122;SDS011;68526;44.600;26.032;2023-03-23T00:21:13;45.27;;;29.77;;
79122;SDS011;68526;44.600;26.032;2023-03-23T00:21:30;44.22;;;29.20;;
79122;SDS011;68526;44.600;26.032;2023-03-23T00:21:51;46.28;;;31.23;;
79122;SDS011;68526;44.600;26.032;2023-03-23T00:22:08;45.40;;;30.65;;
79122;SDS011;68526;44.600;26.032;2023-03-23T00:22:24;45.35;;;29.35;;
79122;SDS011;68526;44.600;26.032;2023-03-23T00:22:40;45.05;;;29.35;;
79122;SDS011;68526;44.600;26.032;2023-03-23T00:22:56;45.08;;;30.08;;
79122;SDS011;68526;44.600;26.032;2023-03-23T00:23:15;46.57;;;30.80;;
79122;SDS011;68526;44.600;26.032;2023-03-23T00:23:35;44.25;;;30.05;;
79122;SDS011;68526;44.600;26.032;2023-03-23T00:23:53;44.83;;;30.02;;
79122;SDS011;68526;44.600;26.032;2023-03-23T00:24:22;44.75;;;29.65;;
79122;SDS011;68526;44.600;26.032;2023-03-23T00:24:39;46.13;;;31.50;;
79122;SDS011;68526;44.600;26.032;2023-03-23T00:24:55;44.80;;;30.40;;
79122;SDS011;68526;44.600;26.032;2023-03-23T00:25:10;44.08;;;29.13;;
79122;SDS011;68526;44.600;26.032;2023-03-23T00:25:26;45.25;;;29.65;;
79122;SDS011;68526;44.600;26.032;2023-03-23T00:25:42;45.05;;;29.52;;
79122;SDS011;68526;44.600;26.032;2023-03-23T00:26:00;44.53;;;29.77;;
79122;SDS011;68526;44.600;26.032;2023-03-23T00:26:17;45.28;;;30.92;;
79122;SDS011;68526;44.600;26.032;2023-03-23T00:26:34;48.30;;;31.75;;
79122;SDS011;68526;44.600;26.032;2023-03-23T00:26:51;47.13;;;30.88;;
79122;SDS011;68526;44.600;26.032;2023-03-23T00:27:08;45.53;;;30.15;;
79122;SDS011;68526;44.600;26.032;2023-03-23T00:27:27;43.95;;;29.60;;
79122;SDS011;68526;44.600;26.032;2023-03-23T00:27:44;46.95;;;30.58;;
79122;SDS011;68526;44.600;26.032;2023-03-23T00:28:00;48.53;;;31.05;;
79122;SDS011;68526;44.600;26.032;2023-03-23T00:28:17;47.25;;;30.10;;
79122;SDS011;68526;44.600;26.032;2023-03-23T00:28:39;46.85;;;30.20;;
79122;SDS011;68526;44.600;26.032;2023-03-23T00:28:55;47.10;;;30.25;;
79122;SDS011;68526;44.600;26.032;2023-03-23T00:29:12;46.60;;;30.05;;
79122;SDS011;68526;44.600;26.032;2023-03-23T00:29:30;46.05;;;30.02;;
79122;SDS011;68526;44.600;26.032;2023-03-23T00:29:47;47.77;;;30.77;;
79122;SDS011;68526;44.600;26.032;2023-03-23T00:30:04;47.53;;;29.98;;
79122;SDS011;68526;44.600;26.032;2023-03-23T00:30:21;48.05;;;29.95;;
79122;SDS011;68526;44.600;26.032;2023-03-23T00:30:37;47.03;;;29.98;;
79122;SDS011;68526;44.600;26.032;2023-03-23T00:30:54;47.63;;;31.13;;
79122;SDS011;68526;44.600;26.032;2023-03-23T00:31:12;47.50;;;31.17;;
79122;SDS011;68526;44.600;26.032;2023-03-23T00:31:28;45.33;;;30.33;;
79122;SDS011;68526;44.600;26.032;2023-03-23T00:31:47;43.97;;;29.83;;
79122;SDS011;68526;44.600;26.032;2023-03-23T00:32:03;46.08;;;29.77;;
79122;SDS011;68526;44.600;26.032;2023-03-23T00:32:22;45.38;;;30.25;;
79122;SDS011;68526;44.600;26.032;2023-03-23T00:32:42;48.20;;;31.88;;
79122;SDS011;68526;44.600;26.032;2023-03-23T00:32:58;47.53;;;31.47;;
79122;SDS011;68526;44.600;26.032;2023-03-23T00:33:14;45.70;;;30.17;;
79122;SDS011;68526;44.600;26.032;2023-03-23T00:33:32;45.25;;;30.20;;
79122;SDS011;68526;44.600;26.032;2023-03-23T00:33:54;47.28;;;30.60;;
79122;SDS011;68526;44.600;26.032;2023-03-23T00:34:10;47.22;;;30.42;;
79122;SDS011;68526;44.600;26.032;2023-03-23T00:34:27;46.97;;;30.63;;
79122;SDS011;68526;44.600;26.032;2023-03-23T00:34:47;45.15;;;29.75;;
79122;SDS011;68526;44.600;26.032;2023-03-23T00:35:04;45.25;;;29.83;;
79122;SDS011;68526;44.600;26.032;2023-03-23T00:35:21;45.00;;;30.15;;
79122;SDS011;68526;44.600;26.032;2023-03-23T00:35:37;44.90;;;29.88;;
79122;SDS011;68526;44.600;26.032;2023-03-23T00:35:53;46.03;;;30.23;;
79122;SDS011;68526;44.600;26.032;2023-03-23T00:36:11;46.90;;;30.15;;
79122;SDS011;68526;44.600;26.032;2023-03-23T00:36:27;45.95;;;29.27;;
79122;SDS011;68526;44.600;26.032;2023-03-23T00:36:45;44.35;;;29.83;;
79122;SDS011;68526;44.600;26.032;2023-03-23T00:37:01;47.90;;;30.75;;
79122;SDS011;68526;44.600;26.032;2023-03-23T00:37:17;48.22;;;30.40;;
79122;SDS011;68526;44.600;26.032;2023-03-23T00:37:34;48.13;;;30.45;;
79122;SDS011;68526;44.600;26.032;2023-03-23T00:37:50;47.95;;;30.10;;
79122;SDS011;68526;44.600;26.032;2023-03-23T00:38:06;46.03;;;29.35;;
79122;SDS011;68526;44.600;26.032;2023-03-23T00:38:23;46.78;;;30.27;;
79122;SDS011;68526;44.600;26.032;2023-03-23T00:38:40;47.38;;;30.77;;
79122;SDS011;68526;44.600;26.032;2023-03-23T00:38:56;47.55;;;29.73;;
79122;SDS011;68526;44.600;26.032;2023-03-23T00:39:14;46.13;;;29.08;;
79122;SDS011;68526;44.600;26.032;2023-03-23T00:39:31;46.17;;;29.67;;
79122;SDS011;68526;44.600;26.032;2023-03-23T00:39:47;46.15;;;29.88;;
79122;SDS011;68526;44.600;26.032;2023-03-23T00:40:06;45.70;;;29.80;;
79122;SDS011;68526;44.600;26.032;2023-03-23T00:40:25;44.63;;;29.65;;
79122;SDS011;68526;44.600;26.032;2023-03-23T00:40:41;43.67;;;29.02;;
79122;SDS011;68526;44.600;26.032;2023-03-23T00:40:58;45.08;;;28.58;;
79122;SDS011;68526;44.600;26.032;2023-03-23T00:41:17;43.28;;;27.70;;
79122;SDS011;68526;44.600;26.032;2023-03-23T00:41:33;43.75;;;27.83;;
79122;SDS011;68526;44.600;26.032;2023-03-23T00:41:51;43.00;;;27.65;;
79122;SDS011;68526;44.600;26.032;2023-03-23T00:42:08;40.65;;;26.70;;
79122;SDS011;68526;44.600;26.032;2023-03-23T00:42:24;39.75;;;26.65;;
79122;SDS011;68526;44.600;26.032;2023-03-23T00:42:41;40.58;;;26.88;;
79122;SDS011;68526;44.600;26.032;2023-03-23T00:42:58;40.53;;;26.83;;
79122;SDS011;68526;44.600;26.032;2023-03-23T00:43:15;41.00;;;27.02;;
79122;SDS011;68526;44.600;26.032;2023-03-23T00:43:33;41.05;;;27.88;;
79122;SDS011;68526;44.600;26.032;2023-03-23T00:43:51;42.63;;;28.27;;
79122;SDS011;68526;44.600;26.032;2023-03-23T00:44:06;40.88;;;27.50;;
79122;SDS011;68526;44.600;26.032;2023-03-23T00:44:23;43.80;;;27.25;;
79122;SDS011;68526;44.600;26.032;2023-03-23T00:44:39;46.22;;;26.10;;
79122;SDS011;68526;44.600;26.032;2023-03-23T00:44:55;44.20;;;25.95;;
79122;SDS011;68526;44.600;26.032;2023-03-23T00:45:15;43.75;;;26.75;;
79122;SDS011;68526;44.600;26.032;2023-03-23T00:45:31;41.13;;;25.88;;
79122;SDS011;68526;44.600;26.032;2023-03-23T00:45:49;43.50;;;25.05;;
79122;SDS011;68526;44.600;26.032;2023-03-23T00:46:07;42.77;;;24.60;;
79122;SDS011;68526;44.600;26.032;2023-03-23T00:46:24;44.13;;;24.90;;
79122;SDS011;68526;44.600;26.032;2023-03-23T00:46:41;42.63;;;25.20;;
79122;SDS011;68526;44.600;26.032;2023-03-23T00:47:00;46.80;;;25.83;;
79122;SDS011;68526;44.600;26.032;2023-03-23T00:47:16;48.25;;;25.35;;
79122;SDS011;68526;44.600;26.032;2023-03-23T00:47:32;45.20;;;24.77;;
79122;SDS011;68526;44.600;26.032;2023-03-23T00:47:51;48.60;;;25.23;;
79122;SDS011;68526;44.600;26.032;2023-03-23T00:48:07;44.47;;;24.92;;
79122;SDS011;68526;44.600;26.032;2023-03-23T00:48:23;44.22;;;25.58;;
79122;SDS011;68526;44.600;26.032;2023-03-23T00:48:40;58.22;;;26.05;;
79122;SDS011;68526;44.600;26.032;2023-03-23T00:49:01;60.45;;;25.50;;
79122;SDS011;68526;44.600;26.032;2023-03-23T00:49:18;61.47;;;26.88;;
79122;SDS011;68526;44.600;26.032;2023-03-23T00:49:34;65.28;;;27.25;;
79122;SDS011;68526;44.600;26.032;2023-03-23T00:49:51;58.78;;;26.75;;
79122;SDS011;68526;44.600;26.032;2023-03-23T00:50:10;56.17;;;27.15;;
79122;SDS011;68526;44.600;26.032;2023-03-23T00:50:28;52.25;;;26.73;;
79122;SDS011;68526;44.600;26.032;2023-03-23T00:50:44;59.00;;;26.45;;
79122;SDS011;68526;44.600;26.032;2023-03-23T00:50:59;56.60;;;26.48;;
79122;SDS011;68526;44.600;26.032;2023-03-23T00:51:16;47.35;;;26.83;;
79122;SDS011;68526;44.600;26.032;2023-03-23T00:51:32;52.88;;;27.45;;
79122;SDS011;68526;44.600;26.032;2023-03-23T00:51:50;56.33;;;27.98;;
79122;SDS011;68526;44.600;26.032;2023-03-23T00:52:06;50.45;;;27.13;;
79122;SDS011;68526;44.600;26.032;2023-03-23T00:52:22;47.42;;;27.33;;
79122;SDS011;68526;44.600;26.032;2023-03-23T00:52:38;57.40;;;27.60;;
79122;SDS011;68526;44.600;26.032;2023-03-23T00:52:54;69.57;;;27.33;;
79122;SDS011;68526;44.600;26.032;2023-03-23T00:53:12;73.95;;;27.70;;
79122;SDS011;68526;44.600;26.032;2023-03-23T00:53:28;74.70;;;28.25;;
79122;SDS011;68526;44.600;26.032;2023-03-23T00:53:44;64.35;;;28.80;;
79122;SDS011;68526;44.600;26.032;2023-03-23T00:54:00;62.63;;;28.08;;
79122;SDS011;68526;44.600;26.032;2023-03-23T00:54:16;72.25;;;27.73;;
79122;SDS011;68526;44.600;26.032;2023-03-23T00:54:32;68.95;;;27.77;;
79122;SDS011;68526;44.600;26.032;2023-03-23T00:54:49;52.05;;;27.58;;
79122;SDS011;68526;44.600;26.032;2023-03-23T00:55:06;54.83;;;28.23;;
79122;SDS011;68526;44.600;26.032;2023-03-23T00:55:22;75.57;;;28.45;;
79122;SDS011;68526;44.600;26.032;2023-03-23T00:55:40;80.80;;;28.38;;
79122;SDS011;68526;44.600;26.032;2023-03-23T00:55:56;69.30;;;27.60;;
79122;SDS011;68526;44.600;26.032;2023-03-23T00:56:13;63.17;;;27.80;;
79122;SDS011;68526;44.600;26.032;2023-03-23T00:56:29;56.15;;;28.48;;
79122;SDS011;68526;44.600;26.032;2023-03-23T00:56:45;63.75;;;28.40;;
79122;SDS011;68526;44.600;26.032;2023-03-23T00:57:02;73.30;;;28.70;;
79122;SDS011;68526;44.600;26.032;2023-03-23T00:57:17;63.50;;;28.10;;
79122;SDS011;68526;44.600;26.032;2023-03-23T00:57:35;64.15;;;28.38;;
79122;SDS011;68526;44.600;26.032;2023-03-23T00:57:50;71.53;;;28.75;;
79122;SDS011;68526;44.600;26.032;2023-03-23T00:58:06;77.60;;;27.50;;
79122;SDS011;68526;44.600;26.032;2023-03-23T00:58:22;74.70;;;26.33;;
79122;SDS011;68526;44.600;26.032;2023-03-23T00:58:38;64.18;;;26.48;;
79122;SDS011;68526;44.600;26.032;2023-03-23T00:58:55;68.68;;;27.38;;
79122;SDS011;68526;44.600;26.032;2023-03-23T00:59:11;63.67;;;27.23;;
79122;SDS011;68526;44.600;26.032;2023-03-23T00:59:27;60.33;;;27.23;;
79122;SDS011;68526;44.600;26.032;2023-03-23T00:59:43;57.53;;;27.63;;
79122;SDS011;68526;44.600;26.032;2023-03-23T00:59:58;59.40;;;27.38;;
79122;SDS011;68526;44.600;26.032;2023-03-23T01:00:15;64.25;;;27.10;;
79122;SDS011;68526;44.600;26.032;2023-03-23T01:00:32;70.25;;;27.65;;
79122;SDS011;68526;44.600;26.032;2023-03-23T01:00:47;75.90;;;27.77;;
79122;SDS011;68526;44.600;26.032;2023-03-23T01:01:03;59.57;;;26.53;;
79122;SDS011;68526;44.600;26.032;2023-03-23T01:01:20;58.78;;;26.27;;
79122;SDS011;68526;44.600;26.032;2023-03-23T01:01:37;76.70;;;26.77;;
79122;SDS011;68526;44.600;26.032;2023-03-23T01:01:53;80.63;;;26.95;;
79122;SDS011;68526;44.600;26.032;2023-03-23T01:02:09;68.87;;;26.03;;
79122;SDS011;68526;44.600;26.032;2023-03-23T01:02:24;58.47;;;25.05;;
79122;SDS011;68526;44.600;26.032;2023-03-23T01:02:41;63.00;;;25.15;;
79122;SDS011;68526;44.600;26.032;2023-03-23T01:02:59;61.42;;;25.58;;
79122;SDS011;68526;44.600;26.032;2023-03-23T01:03:16;45.60;;;25.50;;
79122;SDS011;68526;44.600;26.032;2023-03-23T01:03:33;38.55;;;24.85;;
79122;SDS011;68526;44.600;26.032;2023-03-23T01:03:50;40.35;;;25.30;;
79122;SDS011;68526;44.600;26.032;2023-03-23T01:04:07;48.10;;;24.90;;
79122;SDS011;68526;44.600;26.032;2023-03-23T01:04:23;53.50;;;24.48;;
79122;SDS011;68526;44.600;26.032;2023-03-23T01:04:43;64.07;;;25.23;;
79122;SDS011;68526;44.600;26.032;2023-03-23T01:04:59;58.15;;;25.15;;
79122;SDS011;68526;44.600;26.032;2023-03-23T01:05:18;48.28;;;24.90;;
79122;SDS011;68526;44.600;26.032;2023-03-23T01:05:34;64.77;;;25.73;;
79122;SDS011;68526;44.600;26.032;2023-03-23T01:05:52;63.15;;;25.65;;
79122;SDS011;68526;44.600;26.032;2023-03-23T01:06:09;55.80;;;24.92;;
79122;SDS011;68526;44.600;26.032;2023-03-23T01:06:27;66.20;;;25.27;;
79122;SDS011;68526;44.600;26.032;2023-03-23T01:06:43;74.15;;;26.00;;
79122;SDS011;68526;44.600;26.032;2023-03-23T01:06:59;71.15;;;25.33;;
79122;SDS011;68526;44.600;26.032;2023-03-23T01:07:15;77.43;;;25.38;;
79122;SDS011;68526;44.600;26.032;2023-03-23T01:07:33;80.18;;;24.98;;
79122;SDS011;68526;44.600;26.032;2023-03-23T01:07:48;78.07;;;25.43;;
79122;SDS011;68526;44.600;26.032;2023-03-23T01:08:05;77.55;;;25.33;;
79122;SDS011;68526;44.600;26.032;2023-03-23T01:08:21;75.35;;;25.48;;
79122;SDS011;68526;44.600;26.032;2023-03-23T01:08:38;72.63;;;26.23;;
79122;SDS011;68526;44.600;26.032;2023-03-23T01:09:00;64.75;;;25.63;;
79122;SDS011;68526;44.600;26.032;2023-03-23T01:09:18;75.55;;;25.08;;
79122;SDS011;68526;44.600;26.032;2023-03-23T01:09:36;80.72;;;24.83;;
79122;SDS011;68526;44.600;26.032;2023-03-23T01:09:54;62.58;;;24.95;;
79122;SDS011;68526;44.600;26.032;2023-03-23T01:10:13;59.78;;;25.67;;
79122;SDS011;68526;44.600;26.032;2023-03-23T01:10:31;53.17;;;25.90;;
79122;SDS011;68526;44.600;26.032;2023-03-23T01:10:48;58.70;;;26.30;;
79122;SDS011;68526;44.600;26.032;2023-03-23T01:11:06;59.00;;;27.20;;
79122;SDS011;68526;44.600;26.032;2023-03-23T01:11:22;46.95;;;26.85;;
79122;SDS011;68526;44.600;26.032;2023-03-23T01:11:39;48.10;;;26.67;;
79122;SDS011;68526;44.600;26.032;2023-03-23T01:11:55;54.03;;;27.45;;
79122;SDS011;68526;44.600;26.032;2023-03-23T01:12:11;62.33;;;26.83;;
79122;SDS011;68526;44.600;26.032;2023-03-23T01:12:27;62.78;;;26.40;;
79122;SDS011;68526;44.600;26.032;2023-03-23T01:12:44;58.60;;;27.23;;
79122;SDS011;68526;44.600;26.032;2023-03-23T01:13:00;54.42;;;26.73;;
79122;SDS011;68526;44.600;26.032;2023-03-23T01:13:17;50.33;;;27.08;;
79122;SDS011;68526;44.600;26.032;2023-03-23T01:13:33;48.78;;;28.23;;
79122;SDS011;68526;44.600;26.032;2023-03-23T01:13:49;45.63;;;27.83;;
79122;SDS011;68526;44.600;26.032;2023-03-23T01:14:05;46.17;;;27.38;;
79122;SDS011;68526;44.600;26.032;2023-03-23T01:14:21;48.07;;;27.23;;
79122;SDS011;68526;44.600;26.032;2023-03-23T01:14:38;43.75;;;26.42;;
79122;SDS011;68526;44.600;26.032;2023-03-23T01:14:54;46.05;;;25.95;;
79122;SDS011;68526;44.600;26.032;2023-03-23T01:15:12;47.92;;;25.77;;
79122;SDS011;68526;44.600;26.032;2023-03-23T01:15:29;46.97;;;25.63;;
79122;SDS011;68526;44.600;26.032;2023-03-23T01:15:46;45.47;;;25.58;;
79122;SDS011;68526;44.600;26.032;2023-03-23T01:16:03;45.67;;;25.50;;
79122;SDS011;68526;44.600;26.032;2023-03-23T01:16:19;43.70;;;25.45;;
79122;SDS011;68526;44.600;26.032;2023-03-23T01:16:35;42.28;;;25.20;;
79122;SDS011;68526;44.600;26.032;2023-03-23T01:16:51;46.13;;;25.38;;
79122;SDS011;68526;44.600;26.032;2023-03-23T01:17:07;45.25;;;24.90;;
79122;SDS011;68526;44.600;26.032;2023-03-23T01:17:24;43.87;;;24.90;;
79122;SDS011;68526;44.600;26.032;2023-03-23T01:17:40;42.72;;;25.55;;
79122;SDS011;68526;44.600;26.032;2023-03-23T01:17:56;38.58;;;25.75;;
79122;SDS011;68526;44.600;26.032;2023-03-23T01:18:12;36.60;;;24.67;;
79122;SDS011;68526;44.600;26.032;2023-03-23T01:18:28;39.87;;;23.90;;
79122;SDS011;68526;44.600;26.032;2023-03-23T01:18:44;41.10;;;24.73;;
79122;SDS011;68526;44.600;26.032;2023-03-23T01:19:01;39.20;;;24.85;;
79122;SDS011;68526;44.600;26.032;2023-03-23T01:19:18;39.28;;;23.98;;
79122;SDS011;68526;44.600;26.032;2023-03-23T01:19:34;39.53;;;24.00;;
79122;SDS011;68526;44.600;26.032;2023-03-23T01:19:50;41.53;;;24.98;;
79122;SDS011;68526;44.600;26.032;2023-03-23T01:20:06;42.57;;;25.87;;
79122;SDS011;68526;44.600;26.032;2023-03-23T01:20:24;46.22;;;25.92;;
79122;SDS011;68526;44.600;26.032;2023-03-23T01:20:41;53.42;;;24.27;;
79122;SDS011;68526;44.600;26.032;2023-03-23T01:20:57;46.13;;;24.33;;
79122;SDS011;68526;44.600;26.032;2023-03-23T01:21:18;36.03;;;24.33;;
79122;SDS011;68526;44.600;26.032;2023-03-23T01:21:35;40.97;;;24.57;;
79122;SDS011;68526;44.600;26.032;2023-03-23T01:21:53;46.53;;;25.38;;
79122;SDS011;68526;44.600;26.032;2023-03-23T01:22:09;41.65;;;24.55;;
79122;SDS011;68526;44.600;26.032;2023-03-23T01:22:25;35.92;;;24.27;;
79122;SDS011;68526;44.600;26.032;2023-03-23T01:22:41;40.25;;;25.52;;
79122;SDS011;68526;44.600;26.032;2023-03-23T01:22:57;37.88;;;24.98;;
79122;SDS011;68526;44.600;26.032;2023-03-23T01:23:16;36.92;;;24.90;;
79122;SDS011;68526;44.600;26.032;2023-03-23T01:23:32;38.83;;;25.40;;
79122;SDS011;68526;44.600;26.032;2023-03-23T01:23:48;41.38;;;25.20;;
79122;SDS011;68526;44.600;26.032;2023-03-23T01:24:04;42.13;;;25.00;;
79122;SDS011;68526;44.600;26.032;2023-03-23T01:24:21;40.22;;;25.67;;
79122;SDS011;68526;44.600;26.032;2023-03-23T01:24:38;40.03;;;26.58;;
79122;SDS011;68526;44.600;26.032;2023-03-23T01:24:53;38.65;;;26.13;;
79122;SDS011;68526;44.600;26.032;2023-03-23T01:25:10;38.90;;;24.93;;
79122;SDS011;68526;44.600;26.032;2023-03-23T01:25:27;44.30;;;25.77;;
79122;SDS011;68526;44.600;26.032;2023-03-23T01:25:44;47.67;;;25.92;;
79122;SDS011;68526;44.600;26.032;2023-03-23T01:26:02;45.97;;;25.98;;
79122;SDS011;68526;44.600;26.032;2023-03-23T01:26:20;47.45;;;25.73;;
79122;SDS011;68526;44.600;26.032;2023-03-23T01:26:38;46.90;;;25.95;;
79122;SDS011;68526;44.600;26.032;2023-03-23T01:26:54;42.92;;;26.75;;
79122;SDS011;68526;44.600;26.032;2023-03-23T01:27:10;48.05;;;26.75;;
79122;SDS011;68526;44.600;26.032;2023-03-23T01:27:25;49.85;;;26.58;;
79122;SDS011;68526;44.600;26.032;2023-03-23T01:27:41;48.07;;;26.53;;
79122;SDS011;68526;44.600;26.032;2023-03-23T01:27:57;53.63;;;26.50;;
79122;SDS011;68526;44.600;26.032;2023-03-23T01:28:14;50.47;;;26.30;;
79122;SDS011;68526;44.600;26.032;2023-03-23T01:28:30;41.05;;;25.42;;
79122;SDS011;68526;44.600;26.032;2023-03-23T01:28:46;48.03;;;25.58;;
79122;SDS011;68526;44.600;26.032;2023-03-23T01:29:03;46.80;;;26.25;;
79122;SDS011;68526;44.600;26.032;2023-03-23T01:29:18;48.58;;;27.80;;
79122;SDS011;68526;44.600;26.032;2023-03-23T01:29:35;59.58;;;28.50;;
79122;SDS011;68526;44.600;26.032;2023-03-23T01:29:51;51.00;;;27.90;;
79122;SDS011;68526;44.600;26.032;2023-03-23T01:30:08;46.00;;;26.83;;
79122;SDS011;68526;44.600;26.032;2023-03-23T01:30:27;47.33;;;27.48;;
79122;SDS011;68526;44.600;26.032;2023-03-23T01:30:42;43.25;;;26.88;;
79122;SDS011;68526;44.600;26.032;2023-03-23T01:30:59;43.87;;;25.60;;
79122;SDS011;68526;44.600;26.032;2023-03-23T01:31:17;51.83;;;26.57;;
79122;SDS011;68526;44.600;26.032;2023-03-23T01:31:35;51.63;;;27.27;;
79122;SDS011;68526;44.600;26.032;2023-03-23T01:31:51;43.33;;;27.33;;
79122;SDS011;68526;44.600;26.032;2023-03-23T01:32:07;47.40;;;28.40;;
79122;SDS011;68526;44.600;26.032;2023-03-23T01:32:23;47.90;;;27.90;;
79122;SDS011;68526;44.600;26.032;2023-03-23T01:32:40;46.47;;;27.90;;
79122;SDS011;68526;44.600;26.032;2023-03-23T01:32:56;46.13;;;27.17;;
79122;SDS011;68526;44.600;26.032;2023-03-23T01:33:11;46.83;;;27.52;;
79122;SDS011;68526;44.600;26.032;2023-03-23T01:33:27;52.67;;;28.63;;
79122;SDS011;68526;44.600;26.032;2023-03-23T01:33:43;53.03;;;28.48;;
79122;SDS011;68526;44.600;26.032;2023-03-23T01:34:01;47.85;;;27.80;;
79122;SDS011;68526;44.600;26.032;2023-03-23T01:34:16;49.43;;;28.20;;
79122;SDS011;68526;44.600;26.032;2023-03-23T01:34:34;61.60;;;28.65;;
79122;SDS011;68526;44.600;26.032;2023-03-23T01:34:50;57.47;;;27.92;;
79122;SDS011;68526;44.600;26.032;2023-03-23T01:35:06;50.00;;;28.15;;
79122;SDS011;68526;44.600;26.032;2023-03-23T01:35:22;63.17;;;29.40;;
79122;SDS011;68526;44.600;26.032;2023-03-23T01:35:38;75.35;;;29.35;;
79122;SDS011;68526;44.600;26.032;2023-03-23T01:35:54;62.35;;;28.58;;
79122;SDS011;68526;44.600;26.032;2023-03-23T01:36:11;50.90;;;28.10;;
79122;SDS011;68526;44.600;26.032;2023-03-23T01:36:29;48.78;;;28.02;;
79122;SDS011;68526;44.600;26.032;2023-03-23T01:36:47;44.75;;;28.13;;
79122;SDS011;68526;44.600;26.032;2023-03-23T01:37:03;56.58;;;29.08;;
79122;SDS011;68526;44.600;26.032;2023-03-23T01:37:20;66.18;;;29.88;;
79122;SDS011;68526;44.600;26.032;2023-03-23T01:37:41;76.35;;;30.17;;
79122;SDS011;68526;44.600;26.032;2023-03-23T01:37:56;63.63;;;29.50;;
79122;SDS011;68526;44.600;26.032;2023-03-23T01:38:12;46.03;;;29.13;;
79122;SDS011;68526;44.600;26.032;2023-03-23T01:38:28;48.28;;;29.25;;